ENFL/FRO METAR and TAF weather

Enter ICAO airport designator
Station Type Date Time Source
ENFL METAR 2018/10/16 21:20 UTC NOAA

ENFL 162120Z AUTO 16018KT 9999NDV DZ FEW002/// SCT007/// OVC022/// 12/08 Q1008


Station Type Date Time Source
ENFL Decoded METAR 2018/10/16 21:20 UTC NOAA

Floro, Norway (ENFL) 61-35N 005-02E 9M
Oct 16, 2018 - 05:20 PM EDT / 2018.10.16 2120 UTC
Wind: from the SSE (160 degrees) at 21 MPH (18 KT):0
Sky conditions: overcast
Weather: drizzle
Temperature: 53 F (12 C)
Dew Point: 46 F (8 C)
Relative Humidity: 76%
Pressure (altimeter): 29.77 in. Hg (1008 hPa)
ob: ENFL 162120Z AUTO 16018KT 9999NDV DZ FEW002/// SCT007/// OVC022/// 12/08 Q1008
cycle: 21

Station Type Date Time Source
ENFL TAF 2010/02/05 07:50 UTC NOAA

METAR ENFL 050750Z 16019KT 140V200 9999 FEW015 SCT030 BKN055 03/M03 Q1011


Example: see airport list